Time;durP1;ratioP1;P1;durP2;ratioP2;P2;SDS_P1;SDS_P2;PMS_P1;PMS_P2;Temp;Humidity;BMP_temperature;BMP_pressure;BME280_temperature;BME280_humidity;BME280_pressure;Samples;Min_cycle;Max_cycle;Signal;HPM_P1;HPM_P2
2024/03/28 00:06:19;;;;;;;5.97;2.72;;;;;;;2.20;100.00;95996.75;5065312;28;20093;-92
2024/03/28 00:09:04;;;;;;;6.63;3.85;;;;;;;2.20;100.00;95996.75;5052207;28;20051;-92
2024/03/28 00:12:17;;;;;;;4.05;1.77;;;;;;;2.10;100.00;95991.94;5072728;28;20028;-92
2024/03/28 00:18:57;;;;;;;2.28;0.95;;;;;;;1.95;100.00;96004.38;5034597;28;20112;-92
2024/03/28 00:25:19;;;;;;;1.98;0.80;;;;;;;1.78;100.00;95998.75;4947516;28;20042;-93
2024/03/28 00:39:00;;;;;;;2.55;1.15;;;;;;;1.92;100.00;95984.75;5085604;28;20036;-94
2024/03/28 00:41:29;;;;;;;4.90;1.00;;;;;;;1.95;100.00;95994.75;5053689;28;20649;-94
2024/03/28 00:44:28;;;;;;;;;;;;;;;;;;;;;
2024/03/28 00:47:54;;;;;;;11.75;3.65;;;;;;;1.72;100.00;95982.13;5077868;28;20039;-94
2024/03/28 00:51:51;;;;;;;;;;;;;;;;;;;;;
2024/03/28 00:59:32;;;;;;;9.43;3.10;;;;;;;1.76;100.00;96001.56;4986576;28;20042;-94
2024/03/28 01:03:30;;;;;;;7.05;2.40;;;;;;;1.76;100.00;95996.34;5000799;28;20036;-94
2024/03/28 01:05:59;;;;;;;5.45;2.35;;;;;;;1.59;100.00;96017.53;4985095;28;20480;-91
2024/03/28 01:08:57;;;;;;;10.77;3.03;;;;;;;1.52;100.00;96013.31;5066918;28;20048;-91
2024/03/28 01:11:26;;;;;;;7.47;2.78;;;;;;;1.41;100.00;96009.47;5074952;28;20043;-91
2024/03/28 01:13:58;;;;;;;3.40;1.40;;;;;;;1.54;100.00;96014.75;5076870;28;20391;-91
2024/03/28 01:17:05;;;;;;;4.78;1.88;;;;;;;1.57;100.00;95997.91;5066574;28;20031;-90
2024/03/28 01:23:24;;;;;;;6.85;1.80;;;;;;;1.52;100.00;95997.69;5093605;28;20356;-94
2024/03/28 01:26:12;;;;;;;5.72;2.08;;;;;;;1.44;100.00;95998.69;5077636;28;20115;-90
2024/03/28 01:28:37;;;;;;;6.25;3.00;;;;;;;1.27;100.00;95995.63;5073897;28;20051;-90
2024/03/28 01:31:25;;;;;;;3.45;2.40;;;;;;;1.31;100.00;96000.25;5057377;28;20071;-89
2024/03/28 01:34:47;;;;;;;5.13;1.40;;;;;;;1.22;100.00;95993.63;5077494;28;20089;-90
2024/03/28 01:37:16;;;;;;;3.50;1.80;;;;;;;1.12;100.00;95994.00;5054958;28;20033;-91
2024/03/28 01:48:01;;;;;;;3.65;1.17;;;;;;;0.91;100.00;95994.91;5032904;28;20118;-93
2024/03/28 01:50:28;;;;;;;4.18;1.80;;;;;;;0.97;100.00;95997.53;5060499;28;20477;-91
2024/03/28 01:53:21;;;;;;;4.43;1.65;;;;;;;1.02;100.00;95993.56;5058159;28;20055;-90
2024/03/28 01:55:56;;;;;;;4.00;1.90;;;;;;;1.06;100.00;95992.97;5051428;28;20120;-90
2024/03/28 01:58:22;;;;;;;6.25;1.90;;;;;;;1.03;100.00;95989.94;5055935;28;20090;-91
2024/03/28 02:00:49;;;;;;;3.97;2.00;;;;;;;0.97;100.00;95988.94;5074902;28;20030;-90
2024/03/28 02:03:15;;;;;;;7.30;1.88;;;;;;;0.94;100.00;95991.94;5056543;28;20050;-90
2024/03/28 02:06:40;;;;;;;4.22;2.00;;;;;;;0.88;100.00;95998.69;5059568;28;20043;-90
2024/03/28 02:10:48;;;;;;;5.38;2.50;;;;;;;0.71;100.00;95996.41;5086670;28;20071;-91
2024/03/28 02:14:09;;;;;;;;;;;;;;;;;;;;;
2024/03/28 02:17:27;;;;;;;4.10;1.52;;;;;;;0.58;100.00;95991.13;5076256;28;20048;-91
2024/03/28 02:20:00;;;;;;;2.65;1.27;;;;;;;0.63;100.00;95991.38;5079156;28;20032;-92
2024/03/28 02:22:26;;;;;;;3.60;1.27;;;;;;;0.64;100.00;95982.56;5054676;28;20036;-93
2024/03/28 02:25:01;;;;;;;5.97;1.38;;;;;;;0.70;100.00;95975.81;5056911;28;20383;-90
2024/03/28 02:27:27;;;;;;;5.95;1.50;;;;;;;0.67;100.00;95968.41;5070731;28;20040;-91
2024/03/28 02:30:07;;;;;;;2.15;1.60;;;;;;;0.76;100.00;95967.25;5073780;28;20690;-90
2024/03/28 02:32:44;;;;;;;4.22;1.63;;;;;;;0.78;100.00;95965.25;5048793;28;20040;-90
2024/03/28 02:35:13;;;;;;;3.90;1.52;;;;;;;0.77;100.00;95968.03;5061256;28;20095;-91
2024/03/28 02:37:48;;;;;;;4.53;1.42;;;;;;;0.84;100.00;95979.28;5062832;28;20059;-91
2024/03/28 02:40:20;;;;;;;4.43;1.50;;;;;;;0.77;100.00;95962.84;5061874;28;20063;-91
2024/03/28 02:42:46;;;;;;;4.45;1.42;;;;;;;0.82;100.00;95970.88;5073512;28;20043;-91
2024/03/28 02:45:12;;;;;;;2.45;1.20;;;;;;;0.82;100.00;95970.88;5074571;28;20040;-90
2024/03/28 02:47:38;;;;;;;4.05;1.92;;;;;;;0.79;100.00;95953.06;5054257;28;20131;-90
2024/03/28 02:50:04;;;;;;;4.80;1.48;;;;;;;0.82;100.00;95956.09;5062616;28;20153;-90
2024/03/28 02:52:33;;;;;;;2.72;1.42;;;;;;;0.78;100.00;95952.25;5059141;28;20036;-91
2024/03/28 02:55:05;;;;;;;4.78;1.60;;;;;;;0.84;100.00;95958.50;5057799;28;20040;-96
2024/03/28 02:57:35;;;;;;;3.13;1.42;;;;;;;0.82;100.00;95952.66;5056919;28;20035;-95
2024/03/28 03:00:34;;;;;;;3.78;1.95;;;;;;;0.78;100.00;95952.25;5068435;28;20089;-91
2024/03/28 03:03:25;;;;;;;2.80;1.50;;;;;;;0.71;100.00;95941.84;5054094;28;20671;-91
2024/03/28 03:05:51;;;;;;;5.32;1.17;;;;;;;0.68;100.00;95947.44;5051468;28;20042;-90
2024/03/28 03:08:17;;;;;;;3.97;1.20;;;;;;;0.67;100.00;95945.81;5065115;28;20055;-91
2024/03/28 03:10:52;;;;;;;6.32;1.58;;;;;;;0.76;100.00;95941.25;5057194;28;20036;-92
2024/03/28 03:13:18;;;;;;;2.75;1.05;;;;;;;0.78;100.00;95943.66;5053900;28;20079;-90
2024/03/28 03:15:52;;;;;;;2.40;1.10;;;;;;;0.91;100.00;95956.72;5056938;28;20047;-90
2024/03/28 03:18:25;;;;;;;3.28;1.00;;;;;;;0.88;100.00;95951.91;5054175;28;20510;-90
2024/03/28 03:21:06;;;;;;;2.45;1.13;;;;;;;0.96;100.00;95941.34;5066518;28;20101;-91
2024/03/28 03:23:37;;;;;;;5.55;1.65;;;;;;;0.84;100.00;95938.50;5047124;28;20124;-90
2024/03/28 03:26:19;;;;;;;3.15;1.20;;;;;;;0.86;100.00;95933.13;5068083;28;20043;-88
2024/03/28 03:34:39;;;;;;;1.75;1.13;;;;;;;0.73;100.00;95908.66;5055862;28;20036;-81
2024/03/28 03:37:26;;;;;;;2.92;1.30;;;;;;;0.86;100.00;95920.13;5045927;28;20107;-82
2024/03/28 03:39:56;;;;;;;3.42;0.95;;;;;;;0.88;100.00;95917.31;5044905;28;20028;-82
2024/03/28 03:42:26;;;;;;;5.68;1.33;;;;;;;0.78;100.00;95913.25;5056036;28;20025;-82
2024/03/28 03:44:52;;;;;;;3.80;1.20;;;;;;;0.77;100.00;95919.47;5030198;28;20036;-82
2024/03/28 03:47:20;;;;;;;5.70;1.27;;;;;;;0.82;100.00;95930.09;5028883;28;20491;-82
2024/03/28 03:49:46;;;;;;;2.38;1.10;;;;;;;0.86;100.00;95939.09;5026715;28;20032;-85
2024/03/28 03:52:19;;;;;;;3.15;0.82;;;;;;;0.90;100.00;95938.69;5033022;28;20382;-86
2024/03/28 03:54:53;;;;;;;5.05;1.48;;;;;;;0.82;100.00;95931.88;5029821;28;20068;-82
2024/03/28 03:57:18;;;;;;;6.72;1.40;;;;;;;0.81;100.00;95938.09;5065231;28;20048;-81
2024/03/28 03:59:44;;;;;;;1.88;1.00;;;;;;;0.75;100.00;95944.84;5043840;28;20314;-82
2024/03/28 04:02:10;;;;;;;3.25;1.25;;;;;;;0.74;100.00;95940.66;5053737;28;20549;-83
2024/03/28 04:08:21;;;;;;;2.28;1.10;;;;;;;0.77;100.00;95940.25;5036438;28;20067;-92
2024/03/28 04:10:46;;;;;;;4.32;1.20;;;;;;;0.78;100.00;95935.88;5036379;28;20040;-91
2024/03/28 04:13:12;;;;;;;12.63;1.27;;;;;;;0.77;100.00;95934.25;5033201;28;20563;-91
2024/03/28 04:15:41;;;;;;;5.78;1.20;;;;;;;0.81;100.00;95922.50;5052587;28;20076;-92
2024/03/28 04:18:07;;;;;;;2.78;0.90;;;;;;;0.85;100.00;95937.50;5051752;28;20050;-91
2024/03/28 04:20:37;;;;;;;3.53;1.55;;;;;;;0.84;100.00;95925.50;5034252;28;20041;-91
2024/03/28 04:23:04;;;;;;;5.47;1.33;;;;;;;0.88;100.00;95915.50;5051706;28;20052;-92
2024/03/28 04:25:36;;;;;;;3.20;1.42;;;;;;;0.89;100.00;95922.31;5056483;28;20071;-91
2024/03/28 04:28:29;;;;;;;4.30;1.20;;;;;;;0.79;100.00;95916.66;5049039;28;20033;-91
2024/03/28 04:31:11;;;;;;;2.60;1.23;;;;;;;0.82;100.00;95918.88;5040191;28;20079;-92
2024/03/28 04:33:37;;;;;;;3.40;0.82;;;;;;;0.85;100.00;95916.69;5055541;28;20031;-92
2024/03/28 04:36:06;;;;;;;1.98;1.10;;;;;;;0.91;100.00;95919.53;5054680;28;20119;-92
2024/03/28 04:38:32;;;;;;;5.57;1.10;;;;;;;0.88;100.00;95915.50;5050146;28;20116;-92
2024/03/28 04:40:58;;;;;;;4.38;1.30;;;;;;;0.92;100.00;95911.53;5071729;28;20032;-92
2024/03/28 04:43:24;;;;;;;1.77;1.00;;;;;;;0.95;100.00;95918.94;5056690;28;20363;-92
2024/03/28 04:45:50;;;;;;;2.45;1.10;;;;;;;0.92;100.00;95915.91;5057624;28;20053;-91
2024/03/28 04:48:16;;;;;;;5.82;1.02;;;;;;;0.93;100.00;95907.13;5074114;28;20109;-92
2024/03/28 04:50:47;;;;;;;3.20;1.05;;;;;;;1.03;100.00;95914.56;5064530;28;20040;-91
2024/03/28 04:53:13;;;;;;;6.10;1.70;;;;;;;0.95;100.00;95920.72;5058116;28;20512;-91
2024/03/28 04:55:40;;;;;;;1.23;0.73;;;;;;;0.91;100.00;95911.72;5048151;28;20039;-92
2024/03/28 04:58:06;;;;;;;2.17;1.23;;;;;;;0.83;100.00;95917.88;5054162;28;20039;-92
2024/03/28 05:00:32;;;;;;;3.63;1.83;;;;;;;0.83;100.00;95905.69;5058456;28;20040;-91
2024/03/28 05:02:58;;;;;;;3.58;1.10;;;;;;;0.93;100.00;95901.91;5055678;28;20062;-91
2024/03/28 05:05:28;;;;;;;2.30;1.10;;;;;;;0.89;100.00;95905.91;5067586;28;20044;-90
2024/03/28 05:07:59;;;;;;;2.13;1.40;;;;;;;0.95;100.00;95903.34;5051480;28;20035;-93
2024/03/28 05:10:26;;;;;;;3.15;1.15;;;;;;;0.93;100.00;95894.13;5052449;28;20111;-91
2024/03/28 05:12:52;;;;;;;4.00;1.10;;;;;;;1.04;100.00;95895.34;5054698;28;20040;-92
2024/03/28 05:15:18;;;;;;;3.05;1.20;;;;;;;1.05;100.00;95895.16;5057443;28;20537;-91
2024/03/28 05:17:43;;;;;;;2.90;1.20;;;;;;;1.09;100.00;95890.34;5056881;28;20035;-91
2024/03/28 05:20:12;;;;;;;3.47;1.40;;;;;;;1.05;100.00;95895.16;5053556;28;20540;-95
2024/03/28 05:22:39;;;;;;;4.28;1.23;;;;;;;1.02;100.00;95898.13;5065698;28;20036;-95
2024/03/28 05:25:06;;;;;;;8.02;1.17;;;;;;;1.04;100.00;95903.13;5059094;28;20120;-91
2024/03/28 05:27:35;;;;;;;4.70;1.15;;;;;;;1.03;100.00;95909.34;5063291;28;20190;-92
2024/03/28 05:30:02;;;;;;;3.28;1.20;;;;;;;0.96;100.00;95910.13;5053856;28;20186;-92
2024/03/28 05:32:30;;;;;;;4.82;1.35;;;;;;;0.87;100.00;95898.31;5063747;28;20045;-92
2024/03/28 05:34:56;;;;;;;3.75;1.20;;;;;;;0.84;100.00;95899.50;5053410;28;20036;-92
2024/03/28 05:37:22;;;;;;;4.32;0.82;;;;;;;0.74;100.00;95899.06;5069833;28;20046;-92
2024/03/28 05:39:48;;;;;;;2.65;1.20;;;;;;;0.67;100.00;95896.44;5077447;28;20051;-92
2024/03/28 05:42:13;;;;;;;2.45;1.00;;;;;;;0.63;100.00;95894.41;5068493;28;20431;-92
2024/03/28 05:44:40;;;;;;;4.32;1.30;;;;;;;0.65;100.00;95895.03;5058731;28;20097;-87
2024/03/28 05:47:06;;;;;;;4.20;1.13;;;;;;;0.65;100.00;95889.84;5060079;28;20119;-90
2024/03/28 05:49:31;;;;;;;2.10;0.90;;;;;;;0.63;100.00;95887.44;5064399;28;20086;-92
2024/03/28 05:51:57;;;;;;;3.75;1.42;;;;;;;0.64;100.00;95883.03;5056897;28;20427;-92
2024/03/28 05:54:23;;;;;;;3.95;1.23;;;;;;;0.61;100.00;95877.22;5052941;28;20055;-92
2024/03/28 05:56:50;;;;;;;3.53;1.15;;;;;;;0.70;100.00;95888.25;5058461;28;20036;-91
2024/03/28 05:59:18;;;;;;;3.45;1.60;;;;;;;0.82;100.00;95893.69;5060274;28;20544;-93
2024/03/28 06:01:44;;;;;;;5.18;1.25;;;;;;;0.81;100.00;95888.69;5049533;28;20095;-95
2024/03/28 06:04:10;;;;;;;3.05;0.93;;;;;;;0.85;100.00;95890.72;5064625;28;20039;-95
2024/03/28 06:06:36;;;;;;;4.45;1.02;;;;;;;0.89;100.00;95887.72;5062536;28;20043;-95
2024/03/28 06:09:03;;;;;;;3.85;1.02;;;;;;;0.90;100.00;95894.50;5060422;28;20061;-92
2024/03/28 06:11:29;;;;;;;4.97;1.33;;;;;;;0.82;100.00;95888.50;5072644;28;20036;-86
2024/03/28 06:14:05;;;;;;;4.93;0.90;;;;;;;0.82;100.00;95883.31;5071716;28;20109;-86
2024/03/28 06:16:31;;;;;;;3.42;1.20;;;;;;;0.78;100.00;95873.50;5059252;28;20043;-86
2024/03/28 06:18:57;;;;;;;4.60;1.42;;;;;;;0.76;100.00;95868.50;5056115;28;20094;-85
2024/03/28 06:21:23;;;;;;;2.72;0.85;;;;;;;0.78;100.00;95879.47;5054882;28;20043;-86
2024/03/28 06:23:48;;;;;;;4.43;1.02;;;;;;;0.80;100.00;95884.47;5056690;28;20713;-87
2024/03/28 06:26:14;;;;;;;5.78;1.30;;;;;;;0.80;100.00;95879.28;5056329;28;20040;-88
2024/03/28 06:28:40;;;;;;;1.77;0.90;;;;;;;0.80;100.00;95882.69;5054151;28;20453;-87
2024/03/28 06:31:06;;;;;;;6.45;1.10;;;;;;;0.86;100.00;95871.50;5056583;28;20043;-86
2024/03/28 06:33:32;;;;;;;5.60;1.10;;;;;;;0.87;100.00;95882.72;5052550;28;20037;-86
2024/03/28 06:35:58;;;;;;;3.30;1.27;;;;;;;0.77;100.00;95882.28;5056829;28;20052;-86
2024/03/28 06:38:23;;;;;;;3.97;1.63;;;;;;;0.70;100.00;95879.66;5053973;28;20565;-85
2024/03/28 06:41:02;;;;;;;8.50;1.65;;;;;;;0.76;100.00;95878.88;5055833;28;20937;-88
2024/03/28 06:43:27;;;;;;;4.40;1.25;;;;;;;0.77;100.00;95890.06;5051813;28;20044;-86
2024/03/28 06:45:53;;;;;;;6.57;1.33;;;;;;;0.78;100.00;95896.88;5055791;28;20783;-87
2024/03/28 06:48:19;;;;;;;5.78;2.08;;;;;;;0.76;100.00;95885.88;5050586;28;20036;-86
2024/03/28 06:50:45;;;;;;;5.85;1.80;;;;;;;0.79;100.00;95883.69;5057998;28;20032;-87
2024/03/28 06:53:11;;;;;;;3.97;1.50;;;;;;;0.88;100.00;95886.13;5067821;28;20044;-87
2024/03/28 06:55:39;;;;;;;7.10;1.77;;;;;;;0.95;100.00;95887.75;5086273;28;20029;-86
2024/03/28 06:58:05;;;;;;;3.22;1.33;;;;;;;1.03;100.00;95894.56;5052652;28;20123;-94
2024/03/28 07:00:31;;;;;;;6.60;1.85;;;;;;;1.26;100.00;95895.97;5075654;28;20040;-92
2024/03/28 07:02:57;;;;;;;5.53;2.30;;;;;;;1.57;100.00;95905.03;5071794;28;20036;-92
2024/03/28 07:05:23;;;;;;;7.30;2.40;;;;;;;1.86;100.00;95902.22;5049042;28;20036;-91
2024/03/28 07:07:51;;;;;;;4.53;1.73;;;;;;;2.17;100.00;95890.34;5054198;28;20032;-92
2024/03/28 07:10:16;;;;;;;3.97;1.98;;;;;;;2.32;100.00;95884.13;5046903;28;20800;-92
2024/03/28 07:12:42;;;;;;;4.03;1.25;;;;;;;2.52;100.00;95881.44;5052559;28;20032;-91
2024/03/28 07:15:09;;;;;;;1.83;0.93;;;;;;;2.69;100.00;95888.81;5059164;28;20752;-85
2024/03/28 07:17:36;;;;;;;1.60;0.90;;;;;;;2.91;100.00;95893.72;5066669;28;20670;-82
2024/03/28 07:20:03;;;;;;;2.03;1.10;;;;;;;3.03;100.00;95894.66;5079929;28;20037;-85
2024/03/28 07:22:32;;;;;;;3.08;1.23;;;;;;;3.20;100.00;95891.56;5064935;28;20189;-86
2024/03/28 07:25:02;;;;;;;5.28;0.98;;;;;;;3.26;100.00;95879.47;5048864;28;20074;-83
2024/03/28 07:27:29;;;;;;;5.70;2.15;;;;;;;3.33;100.00;95875.00;5064331;28;20516;-83
2024/03/28 07:29:54;;;;;;;5.85;0.93;;;;;;;3.45;100.00;95870.72;5063558;28;20028;-83
2024/03/28 07:32:23;;;;;;;8.77;1.00;;;;;;;3.66;100.00;95867.94;5048431;28;20047;-84
2024/03/28 07:34:49;;;;;;;1.98;1.00;;;;;;;3.76;100.00;95862.25;5084859;28;20062;-82
2024/03/28 07:37:15;;;;;;;5.65;1.05;;;;;;;3.81;100.00;95860.56;5064426;28;20068;-83
2024/03/28 07:39:41;;;;;;;5.82;0.93;;;;;;;3.90;100.00;95860.31;5059052;28;20066;-84
2024/03/28 07:42:07;;;;;;;4.55;1.35;;;;;;;4.03;100.00;95862.00;5081629;28;20024;-82
2024/03/28 07:44:32;;;;;;;3.45;1.48;;;;;;;4.14;100.00;95860.47;5052229;28;20063;-84
2024/03/28 07:46:58;;;;;;;2.25;0.90;;;;;;;4.19;100.00;95860.59;5062981;28;20028;-82
2024/03/28 07:49:24;;;;;;;4.18;1.02;;;;;;;4.19;100.00;95863.22;5069574;28;20076;-83
2024/03/28 07:51:51;;;;;;;3.38;0.80;;;;;;;4.15;100.00;95869.91;5066484;28;20124;-84
2024/03/28 07:54:17;;;;;;;6.82;0.90;;;;;;;4.15;100.00;95867.28;5059947;28;20025;-83
2024/03/28 07:56:42;;;;;;;2.78;0.77;;;;;;;4.27;100.00;95868.16;5080067;28;20046;-84
2024/03/28 07:59:08;;;;;;;5.07;0.90;;;;;;;4.38;100.00;95863.25;5072021;28;20127;-83
2024/03/28 08:01:35;;;;;;;2.38;0.80;;;;;;;4.39;100.00;95857.00;5058373;28;20101;-82
2024/03/28 08:04:01;;;;;;;1.27;0.60;;;;;;;4.37;100.00;95853.78;5065071;28;20133;-84
2024/03/28 08:06:27;;;;;;;7.13;1.25;;;;;;;4.28;100.00;95859.34;5076510;28;20037;-83
2024/03/28 08:08:54;;;;;;;2.63;0.82;;;;;;;4.25;100.00;95864.19;5050677;28;20532;-83
2024/03/28 08:11:20;;;;;;;2.83;0.70;;;;;;;4.24;100.00;95863.38;5059579;28;20085;-84
2024/03/28 08:13:46;;;;;;;1.42;0.63;;;;;;;4.21;100.00;95862.00;5060592;28;20051;-87
2024/03/28 08:16:17;;;;;;;5.43;1.00;;;;;;;4.12;100.00;95847.63;5069190;28;20036;-84
2024/03/28 08:18:48;;;;;;;5.43;0.80;;;;;;;4.07;100.00;95847.47;5069622;28;20111;-83
2024/03/28 08:21:15;;;;;;;1.33;0.60;;;;;;;3.97;100.00;95853.19;5081381;28;20038;-84
2024/03/28 08:23:43;;;;;;;3.50;0.82;;;;;;;3.95;100.00;95853.41;5052172;28;20395;-83
2024/03/28 08:26:09;;;;;;;3.70;0.75;;;;;;;4.03;100.00;95847.09;5057980;28;20047;-83
2024/03/28 08:28:35;;;;;;;2.03;0.77;;;;;;;4.14;100.00;95829.91;5054633;28;20032;-87
2024/03/28 08:34:59;;;;;;;2.25;0.75;;;;;;;4.26;100.00;95837.84;5081793;28;20181;-83
2024/03/28 08:37:54;;;;;;;6.03;2.47;;;;;;;4.20;100.00;95839.47;5077433;28;20567;-83
2024/03/28 08:40:43;;;;;;;5.30;0.70;;;;;;;4.29;100.00;95840.00;5056586;28;20055;-85
2024/03/28 08:43:09;;;;;;;2.60;0.65;;;;;;;4.38;100.00;95843.13;5051528;28;20132;-86
2024/03/28 08:45:39;;;;;;;5.88;1.00;;;;;;;4.49;100.00;95849.41;5068471;28;20032;-84
2024/03/28 08:48:46;;;;;;;5.10;0.90;;;;;;;4.69;100.00;95845.78;5064396;28;20063;-85
2024/03/28 08:51:22;;;;;;;3.03;0.80;;;;;;;4.76;100.00;95843.84;5063759;28;20044;-84
2024/03/28 08:53:48;;;;;;;6.15;1.20;;;;;;;4.62;100.00;95843.22;5048773;28;20501;-85
2024/03/28 08:56:26;;;;;;;2.30;0.63;;;;;;;4.79;100.00;95840.03;5062618;28;20156;-82
2024/03/28 08:58:52;;;;;;;4.63;0.50;;;;;;;4.80;100.00;95837.19;5065501;28;20551;-82
2024/03/28 09:01:18;;;;;;;2.03;0.60;;;;;;;4.81;100.00;95838.78;5060272;28;20486;-83
2024/03/28 09:03:58;;;;;;;7.80;2.55;;;;;;;4.99;100.00;95834.50;5061680;28;20024;-84
2024/03/28 09:09:56;;;;;;;3.38;0.77;;;;;;;5.15;100.00;95846.16;5076965;28;20095;-85
2024/03/28 09:13:05;;;;;;;2.85;0.82;;;;;;;5.20;100.00;95838.44;5061937;28;20071;-83
2024/03/28 09:16:16;;;;;;;2.13;0.60;;;;;;;5.27;100.00;95840.16;5076337;28;20043;-85
2024/03/28 09:18:42;;;;;;;0.68;0.50;;;;;;;5.30;100.00;95847.56;5041583;28;20353;-85
2024/03/28 09:21:09;;;;;;;2.58;0.50;;;;;;;5.20;100.00;95848.13;5064750;28;20117;-83
2024/03/28 09:24:07;;;;;;;2.92;1.10;;;;;;;5.43;100.00;95836.09;5081092;28;20067;-83
2024/03/28 09:26:37;;;;;;;2.53;0.80;;;;;;;5.52;100.00;95842.59;5065814;28;20032;-83
2024/03/28 09:36:12;;;;;;;4.75;1.83;;;;;;;5.67;100.00;95849.22;5066005;28;20033;-81
2024/03/28 09:38:56;;;;;;;3.35;0.90;;;;;;;5.90;100.00;95845.00;5056694;28;20044;-82
2024/03/28 09:41:23;;;;;;;2.25;0.70;;;;;;;5.92;100.00;95842.94;5065965;28;20103;-84
2024/03/28 09:44:19;;;;;;;4.13;1.00;;;;;;;6.17;100.00;95836.69;5083636;28;20033;-83
2024/03/28 09:50:41;;;;;;;4.18;0.68;;;;;;;6.48;100.00;95847.81;5064230;28;20470;-81
2024/03/28 09:58:34;;;;;;;1.85;0.50;;;;;;;6.45;100.00;95838.56;5032718;28;20472;-81
2024/03/28 10:01:42;;;;;;;2.83;0.60;;;;;;;6.68;100.00;95839.53;4992845;28;20529;-82
2024/03/28 10:04:31;;;;;;;7.57;1.15;;;;;;;6.78;100.00;95841.56;4978638;28;20159;-81
2024/03/28 10:07:12;;;;;;;3.10;0.60;;;;;;;6.89;100.00;95841.72;5050600;28;20039;-81
2024/03/28 10:09:38;;;;;;;4.32;0.60;;;;;;;6.85;100.00;95843.25;5062810;28;20477;-79
2024/03/28 10:12:14;;;;;;;0.50;0.32;;;;;;;6.73;100.00;95838.03;5056523;28;20067;-81
2024/03/28 10:14:43;;;;;;;5.32;1.55;;;;;;;6.82;100.00;95849.75;5051283;28;20120;-82
2024/03/28 10:17:12;;;;;;;4.07;0.90;;;;;;;6.88;100.00;95848.81;5072547;28;20757;-81
2024/03/28 10:19:57;;;;;;;4.80;0.60;;;;;;;7.11;100.00;95851.56;5077445;28;20066;-81
2024/03/28 10:28:41;;;;;;;;;;;;;;;;;;;;;
2024/03/28 10:44:59;;;;;;;5.07;0.65;;;;;;;7.22;100.00;95858.59;4897911;28;20053;-81
2024/03/28 10:52:05;;;;;;;4.97;0.93;;;;;;;7.46;100.00;95868.97;5016524;28;20087;-80
2024/03/28 11:13:32;;;;;;;10.75;1.00;;;;;;;8.29;100.00;95846.50;4862322;29;20165;-81
2024/03/28 11:20:10;;;;;;;;;;;;;;;7.93;100.00;95843.41;4981664;28;20619;-81
2024/03/28 11:27:46;;;;;;;;;;;;;;;;;;;;;
2024/03/28 11:31:35;;;;;;;4.43;0.70;;;;;;;8.41;100.00;95827.94;5018617;28;20511;-81
2024/03/28 11:35:17;;;;;;;3.13;0.38;;;;;;;8.58;100.00;95834.22;5078513;27;20054;-81
2024/03/28 11:38:13;;;;;;;1.38;0.40;;;;;;;8.77;100.00;95832.88;5060636;28;20055;-81
2024/03/28 11:41:33;;;;;;;2.95;0.55;;;;;;;8.96;100.00;95821.19;5059562;28;20083;-82
2024/03/28 11:45:27;;;;;;;4.18;0.68;;;;;;;9.13;100.00;95832.41;5020752;28;20035;-81
2024/03/28 11:53:30;;;;;;;3.53;0.40;;;;;;;9.08;100.00;95832.38;5001227;28;20048;-81
2024/03/28 11:56:53;;;;;;;2.75;0.30;;;;;;;8.91;100.00;95837.72;5081628;28;20040;-82
2024/03/28 12:00:13;;;;;;;1.85;0.20;;;;;;;9.32;100.00;95839.94;5050274;28;20035;-83
2024/03/28 12:07:29;;;;;;;1.95;0.30;;;;;;;9.70;100.00;95820.75;5045458;28;20044;-83
2024/03/28 12:10:30;;;;;;;0.65;0.20;;;;;;;9.78;100.00;95830.81;5049564;28;20044;-82
2024/03/28 12:26:00;;;;;;;1.75;0.32;;;;;;;10.36;100.00;95831.91;4987843;28;20505;-82
2024/03/28 12:29:28;;;;;;;0.20;0.10;;;;;;;10.15;100.00;95824.69;4933700;28;20026;-80
2024/03/28 12:33:00;;;;;;;4.43;0.30;;;;;;;10.11;100.00;95833.38;4913706;28;20047;-82
2024/03/28 12:36:42;;;;;;;1.80;0.10;;;;;;;10.11;100.00;95828.91;4975444;28;20042;-81
2024/03/28 12:43:14;;;;;;;3.15;0.70;;;;;;;10.52;100.00;95828.31;5025596;28;20050;-81
2024/03/28 12:46:26;;;;;;;;;;;;;;;;;;;;;
2024/03/28 12:50:09;;;;;;;4.25;0.30;;;;;;;10.75;100.00;95838.69;5070158;28;20146;-84
2024/03/28 12:53:25;;;;;;;3.17;0.47;;;;;;;10.85;100.00;95835.28;5102462;28;20054;-80
2024/03/28 13:00:41;;;;;;;2.80;0.30;;;;;;;11.15;100.00;95829.25;5026846;27;20508;-80
2024/03/28 13:03:36;;;;;;;0.82;0.20;;;;;;;11.34;100.00;95831.38;5079591;28;20070;-80
2024/03/28 13:07:11;;;;;;;1.85;0.20;;;;;;;11.61;100.00;95825.03;5088557;28;20070;-81
2024/03/28 13:10:34;;;;;;;1.95;0.35;;;;;;;11.61;100.00;95827.69;5019538;28;20034;-84
2024/03/28 13:13:48;;;;;;;;;;;;;;;;;;;;;
2024/03/28 13:17:22;;;;;;;1.83;0.30;;;;;;;11.58;100.00;95828.22;5022809;28;20128;-84
2024/03/28 13:20:49;;;;;;;3.70;0.50;;;;;;;11.21;100.00;95827.41;5070554;28;20028;-83
2024/03/28 13:24:20;;;;;;;0.93;0.17;;;;;;;11.07;100.00;95824.50;5058432;27;20584;-83
2024/03/28 13:27:28;;;;;;;;;;;;;;;;;;;;;
2024/03/28 13:30:09;;;;;;;2.60;0.40;;;;;;;10.90;100.00;95833.44;5076203;28;20699;-81
2024/03/28 13:33:11;;;;;;;3.28;0.30;;;;;;;10.89;100.00;95831.84;5074802;28;20039;-81
2024/03/28 13:35:58;;;;;;;0.60;0.30;;;;;;;10.72;100.00;95831.31;5061265;28;20050;-82
2024/03/28 13:38:36;;;;;;;7.35;0.40;;;;;;;10.61;100.00;95830.44;5074282;28;20035;-80
2024/03/28 13:41:04;;;;;;;2.45;0.45;;;;;;;10.67;100.00;95830.22;5060178;27;20023;-80
2024/03/28 13:43:31;;;;;;;4.47;0.25;;;;;;;10.86;100.00;95832.38;5070811;28;20067;-80
2024/03/28 13:45:57;;;;;;;0.80;0.30;;;;;;;11.06;100.00;95837.97;5065831;28;20028;-81
2024/03/28 13:48:32;;;;;;;4.68;0.70;;;;;;;11.32;100.00;95845.94;5064499;28;20054;-81
2024/03/28 13:55:14;;;;;;;3.33;0.30;;;;;;;11.35;100.00;95842.75;5080391;28;20031;-80
2024/03/28 13:57:40;;;;;;;2.50;0.30;;;;;;;11.54;100.00;95845.69;5072743;28;20028;-83
2024/03/28 14:00:15;;;;;;;1.55;0.40;;;;;;;11.67;100.00;95844.34;5066151;28;20147;-80
2024/03/28 14:03:11;;;;;;;2.63;0.20;;;;;;;11.45;100.00;95845.41;5072312;27;20070;-83
2024/03/28 14:05:59;;;;;;;1.70;0.30;;;;;;;11.45;94.41;95847.25;5068681;28;20550;-91
2024/03/28 14:08:49;;;;;;;3.05;0.22;;;;;;;11.37;100.00;95840.66;5063884;28;20035;-90
2024/03/28 14:11:22;;;;;;;3.95;0.35;;;;;;;11.62;100.00;95844.34;5061363;28;20035;-90
2024/03/28 14:14:12;;;;;;;1.23;0.20;;;;;;;11.66;100.00;95838.25;5078752;27;20047;-92
2024/03/28 14:17:13;;;;;;;2.95;0.55;;;;;;;11.96;100.00;95843.00;5057549;27;20065;-89
2024/03/28 14:20:22;;;;;;;4.95;0.30;;;;;;;12.07;97.61;95849.06;5073318;27;20064;-89
2024/03/28 14:23:28;;;;;;;5.43;0.30;;;;;;;12.18;100.00;95852.50;5058281;28;20027;-91
2024/03/28 14:26:07;;;;;;;3.63;1.27;;;;;;;12.51;100.00;95851.09;5078313;28;20666;-93
2024/03/28 14:28:42;;;;;;;5.40;0.50;;;;;;;12.69;99.91;95848.09;5061124;28;20035;-85
2024/03/28 14:31:26;;;;;;;3.40;0.55;;;;;;;12.83;98.44;95854.41;5076941;28;20032;-91
2024/03/28 14:34:54;;;;;;;6.03;0.40;;;;;;;12.85;86.64;95862.06;5070794;27;20036;-91
2024/03/28 14:38:05;;;;;;;0.77;0.30;;;;;;;12.78;91.47;95857.88;5058786;28;20132;-90
2024/03/28 14:40:53;;;;;;;0.65;0.20;;;;;;;12.72;88.02;95858.16;5061917;28;20036;-90
2024/03/28 14:44:16;;;;;;;1.50;0.25;;;;;;;12.83;82.20;95853.59;5040731;28;20046;-91
2024/03/28 14:47:03;;;;;;;1.10;0.20;;;;;;;12.65;82.82;95853.94;5053828;28;20036;-90
2024/03/28 14:50:10;;;;;;;4.47;0.30;;;;;;;12.76;80.06;95849.38;5041791;28;20048;-94
2024/03/28 14:57:55;;;;;;;9.10;1.95;;;;;;;12.68;77.60;95860.53;5072492;28;20047;-92
2024/03/28 15:01:32;;;;;;;4.50;0.20;;;;;;;12.58;79.54;95863.25;5071425;28;20059;-95
2024/03/28 15:05:07;;;;;;;3.75;0.17;;;;;;;12.41;83.22;95867.00;5054646;28;20086;-91
2024/03/28 15:12:24;;;;;;;1.95;0.60;;;;;;;12.18;75.98;95871.03;5066368;28;20047;-89
2024/03/28 15:15:30;;;;;;;1.73;0.30;;;;;;;12.18;76.24;95874.47;5044189;28;20142;-91
2024/03/28 15:22:33;;;;;;;1.13;0.40;;;;;;;12.40;80.71;95887.41;5077634;28;20055;-84
2024/03/28 15:25:32;;;;;;;2.03;0.20;;;;;;;12.48;76.49;95890.53;5029500;28;20114;-95
2024/03/28 15:31:56;;;;;;;2.10;0.40;;;;;;;12.37;79.98;95885.28;5025395;28;20045;-93
2024/03/28 15:42:20;;;;;;;;;;;;;;;;;;;;;
2024/03/28 15:48:54;;;;;;;6.45;0.40;;;;;;;11.68;78.81;95922.63;4935671;29;20053;-93
2024/03/28 15:51:48;;;;;;;;;;;;;;;;;;;;;
2024/03/28 15:54:56;;;;;;;1.75;0.30;;;;;;;11.51;78.47;95922.88;4930727;28;20550;-85
2024/03/28 15:58:10;;;;;;;3.83;0.30;;;;;;;11.42;73.32;95927.88;4992924;28;20120;-86
2024/03/28 16:00:49;;;;;;;1.00;0.20;;;;;;;11.41;77.05;95931.59;5028546;28;20180;-85